Time;durP1;ratioP1;P1;durP2;ratioP2;P2;SDS_P1;SDS_P2;PMS_P1;PMS_P2;Temp;Humidity;BMP_temperature;BMP_pressure;BME280_temperature;BME280_humidity;BME280_pressure;Samples;Min_cycle;Max_cycle;Signal;HPM_P1;HPM_P2
2022/05/21 00:03:30;;;;;;;6.10;3.77;;;;;;;13.27;52.33;100912.50;10256085;28;20254;-86
2022/05/21 00:08:33;;;;;;;8.70;4.20;;;;;;;13.17;52.71;100915.66;10271519;28;20238;-86
2022/05/21 00:13:35;;;;;;;6.40;4.57;;;;;;;13.04;53.36;100903.38;10255762;28;20191;-86
2022/05/21 00:18:37;;;;;;;7.30;4.40;;;;;;;13.11;52.67;100911.38;10254594;28;20222;-86
2022/05/21 00:23:40;;;;;;;7.57;3.73;;;;;;;13.00;53.10;100927.91;10254682;28;20226;-86
2022/05/21 00:28:44;;;;;;;7.50;5.40;;;;;;;12.93;53.96;100910.59;10256657;28;20186;-85
2022/05/21 00:33:47;;;;;;;7.93;4.93;;;;;;;12.42;56.14;100922.00;10272232;28;20250;-85
2022/05/21 00:38:49;;;;;;;9.13;5.30;;;;;;;12.67;55.36;100921.13;10271924;28;20198;-85
2022/05/21 00:43:57;;;;;;;11.67;6.33;;;;;;;12.83;54.49;100915.78;10238971;28;20631;-86
2022/05/21 00:49:23;;;;;;;8.37;7.53;;;;;;;12.37;56.97;100914.56;10271596;28;20191;-85
2022/05/21 00:54:31;;;;;;;11.63;8.13;;;;;;;12.85;55.10;100897.31;10256394;28;20187;-87
2022/05/21 00:59:49;;;;;;;9.67;8.23;;;;;;;11.93;57.94;100915.66;10321005;28;20217;-85
2022/05/21 01:04:51;;;;;;;10.60;9.07;;;;;;;11.69;58.93;100909.66;10338094;28;20198;-86
2022/05/21 01:09:55;;;;;;;13.10;9.60;;;;;;;11.94;58.29;100922.97;10305029;28;20190;-86
2022/05/21 01:15:01;;;;;;;12.40;8.57;;;;;;;12.31;57.49;100913.84;10285809;28;20198;-86
2022/05/21 01:20:08;;;;;;;13.37;8.33;;;;;;;12.32;57.03;100917.50;10334260;28;20217;-86
2022/05/21 01:25:13;;;;;;;10.20;8.67;;;;;;;12.16;57.39;100919.16;10317121;28;20233;-86
2022/05/21 01:30:19;;;;;;;12.27;9.30;;;;;;;12.17;57.33;100915.19;10320037;28;20603;-86
2022/05/21 01:35:21;;;;;;;10.30;8.30;;;;;;;11.87;58.74;100914.97;10308953;28;20518;-85
2022/05/21 01:40:24;;;;;;;11.60;9.00;;;;;;;11.76;58.72;100916.47;10332979;28;20296;-86
2022/05/21 01:45:26;;;;;;;9.70;8.10;;;;;;;11.82;58.10;100912.34;10301481;28;20241;-85
2022/05/21 01:50:32;;;;;;;10.43;8.00;;;;;;;11.80;58.36;100906.19;10317365;28;20645;-86
2022/05/21 01:55:34;;;;;;;11.77;7.60;;;;;;;11.87;57.95;100911.31;10300318;28;20198;-86
2022/05/21 02:00:37;;;;;;;9.87;7.03;;;;;;;11.80;58.76;100899.69;10316543;28;20241;-86
2022/05/21 02:05:40;;;;;;;7.47;6.77;;;;;;;11.70;58.41;100900.84;10322476;28;20591;-85
2022/05/21 02:10:43;;;;;;;8.73;6.47;;;;;;;11.61;58.84;100902.81;10306378;28;20252;-86
2022/05/21 02:15:46;;;;;;;7.97;5.93;;;;;;;11.15;59.38;100906.97;10311650;28;20476;-86
2022/05/21 02:20:50;;;;;;;7.27;5.27;;;;;;;11.88;58.41;100894.06;10322003;28;20287;-85
2022/05/21 02:25:52;;;;;;;7.20;5.43;;;;;;;11.41;59.11;100883.66;10305242;28;20503;-85
2022/05/21 02:30:55;;;;;;;9.27;5.83;;;;;;;11.44;58.75;100885.81;10305744;28;20190;-86
2022/05/21 02:35:57;;;;;;;5.73;4.27;;;;;;;11.62;57.80;100890.34;10320945;28;20599;-86
2022/05/21 02:40:59;;;;;;;10.83;4.40;;;;;;;12.04;56.98;100887.91;10337519;28;20646;-85
2022/05/21 02:46:02;;;;;;;7.47;3.70;;;;;;;11.61;58.40;100888.69;10304801;28;20587;-86
2022/05/21 02:51:04;;;;;;;6.70;4.03;;;;;;;11.56;58.03;100891.69;10321294;28;20190;-85
2022/05/21 02:56:08;;;;;;;7.10;4.28;;;;;;;11.76;57.78;100888.22;10337022;28;20194;-85
2022/05/21 03:01:10;;;;;;;6.47;3.80;;;;;;;11.20;59.61;100886.25;10304618;28;20210;-85
2022/05/21 03:06:13;;;;;;;6.73;4.10;;;;;;;11.12;59.68;100881.38;10313684;28;20210;-85
2022/05/21 03:11:15;;;;;;;8.40;5.17;;;;;;;11.33;59.61;100884.47;10313481;28;20190;-85
2022/05/21 03:16:17;;;;;;;11.47;5.83;;;;;;;11.22;60.44;100889.56;10330479;28;20185;-85
2022/05/21 03:21:20;;;;;;;8.93;5.47;;;;;;;12.23;57.55;100889.25;10296078;28;20218;-85
2022/05/21 03:26:22;;;;;;;10.20;6.07;;;;;;;11.27;58.70;100893.06;10313219;28;20186;-85
2022/05/21 03:31:24;;;;;;;12.00;6.93;;;;;;;11.83;58.15;100894.22;10313266;28;20265;-86
2022/05/21 03:36:26;;;;;;;12.90;7.03;;;;;;;11.03;59.61;100905.91;10296437;28;20202;-86
2022/05/21 03:41:29;;;;;;;11.10;7.10;;;;;;;11.51;58.93;100903.13;10280651;28;20257;-86
2022/05/21 03:46:31;;;;;;;10.93;7.73;;;;;;;11.35;59.49;100916.00;10312642;28;20194;-86
2022/05/21 03:51:33;;;;;;;11.23;8.57;;;;;;;11.24;59.77;100898.53;10280740;28;20198;-87
2022/05/21 03:56:36;;;;;;;10.63;8.97;;;;;;;11.76;58.10;100916.47;10278150;28;20197;-86
2022/05/21 04:01:40;;;;;;;15.23;9.50;;;;;;;11.82;58.14;100917.16;10298119;28;20250;-84
2022/05/21 04:06:43;;;;;;;12.80;8.43;;;;;;;11.67;58.03;100911.97;10277451;28;20207;-84
2022/05/21 04:11:45;;;;;;;12.10;9.00;;;;;;;11.73;57.37;100905.03;10295349;28;20242;-84
2022/05/21 04:16:47;;;;;;;11.17;8.07;;;;;;;11.93;57.69;100910.84;10263474;28;20226;-85
2022/05/21 04:21:50;;;;;;;11.67;8.73;;;;;;;12.08;57.14;100906.72;10279662;28;20218;-85
2022/05/21 04:26:53;;;;;;;13.13;9.53;;;;;;;11.55;59.25;100909.78;10282432;28;20199;-85
2022/05/21 04:31:55;;;;;;;14.70;9.17;;;;;;;11.91;58.08;100921.66;10286647;28;20291;-85
2022/05/21 04:36:57;;;;;;;13.07;8.07;;;;;;;12.05;58.23;100923.50;10306581;28;20249;-84
2022/05/21 04:42:03;;;;;;;12.80;8.30;;;;;;;11.89;58.16;100923.13;10323112;28;20213;-85
2022/05/21 04:47:06;;;;;;;10.63;8.73;;;;;;;11.14;61.12;100927.03;10293980;28;20197;-84
2022/05/21 04:52:08;;;;;;;14.30;8.83;;;;;;;11.54;59.85;100925.91;10292834;23;20333;-84
2022/05/21 04:57:11;;;;;;;13.43;8.30;;;;;;;11.66;59.60;100921.59;10225425;28;20269;-83
2022/05/21 05:02:13;;;;;;;12.87;9.03;;;;;;;11.94;59.37;100939.94;10243590;29;20219;-83
2022/05/21 05:07:19;;;;;;;14.63;8.90;;;;;;;11.39;61.65;100937.59;10260555;29;20195;-83
2022/05/21 05:12:21;;;;;;;14.13;8.70;;;;;;;10.81;63.19;100957.56;10245780;28;20599;-86
2022/05/21 05:17:24;;;;;;;10.87;7.60;;;;;;;11.10;62.59;100948.59;10239186;29;20227;-85
2022/05/21 05:22:27;;;;;;;16.83;8.93;;;;;;;11.58;60.03;100951.50;10259911;29;20235;-85
2022/05/21 05:27:31;;;;;;;11.60;8.00;;;;;;;11.51;59.81;100951.94;10260900;28;20203;-85
2022/05/21 05:32:34;;;;;;;13.30;8.10;;;;;;;11.31;60.55;100944.06;10228800;29;20596;-85
2022/05/21 05:37:37;;;;;;;10.00;7.20;;;;;;;11.67;60.04;100943.88;10242943;29;20199;-84
2022/05/21 05:42:40;;;;;;;9.87;7.93;;;;;;;11.82;58.85;100949.06;10242467;28;20215;-85
2022/05/21 05:47:42;;;;;;;16.73;8.73;;;;;;;11.88;59.12;100950.53;10243642;29;20199;-85
2022/05/21 05:52:44;;;;;;;14.17;8.57;;;;;;;12.10;58.50;100952.44;10241972;28;20231;-86
2022/05/21 05:57:52;;;;;;;8.63;7.73;;;;;;;12.56;56.38;100956.59;10259732;29;20199;-85
2022/05/21 06:03:01;;;;;;;12.77;6.83;;;;;;;12.07;57.20;100960.72;10257823;28;20274;-84
2022/05/21 06:08:05;;;;;;;11.17;6.60;;;;;;;12.21;56.90;100967.06;10210253;29;20207;-85
2022/05/21 06:13:07;;;;;;;8.90;6.50;;;;;;;12.43;56.38;100960.44;10241837;29;20192;-86
2022/05/21 06:18:16;;;;;;;8.43;6.70;;;;;;;12.71;55.55;100966.56;10241797;29;20659;-86
2022/05/21 06:23:19;;;;;;;10.93;6.60;;;;;;;12.09;57.04;100972.53;10241279;29;20262;-85
2022/05/21 06:28:21;;;;;;;9.77;5.83;;;;;;;11.70;58.25;100982.75;10241025;29;20195;-85
2022/05/21 06:33:29;;;;;;;10.97;7.03;;;;;;;11.77;57.46;100979.44;10225859;29;20461;-85
2022/05/21 06:38:34;;;;;;;10.43;6.40;;;;;;;11.84;57.83;100974.97;10229763;29;20219;-85
2022/05/21 06:43:37;;;;;;;10.77;6.43;;;;;;;12.46;55.95;100991.69;10249522;29;20282;-85
2022/05/21 06:48:39;;;;;;;11.33;6.43;;;;;;;12.94;55.95;100973.66;10241348;29;20199;-86
2022/05/21 06:53:41;;;;;;;12.40;6.60;;;;;;;12.14;56.77;100989.31;10240915;28;20227;-86
2022/05/21 06:58:44;;;;;;;13.17;7.13;;;;;;;12.49;56.69;100991.03;10225085;29;20196;-86
2022/05/21 07:03:46;;;;;;;12.70;7.17;;;;;;;12.73;55.18;100986.88;10252063;28;20493;-85
2022/05/21 07:08:49;;;;;;;12.63;6.50;;;;;;;12.71;54.78;100986.38;10221374;29;20199;-79
2022/05/21 07:13:51;;;;;;;10.27;6.57;;;;;;;12.81;56.17;100988.84;10236065;29;20238;-87
2022/05/21 07:18:54;;;;;;;11.43;6.87;;;;;;;13.09;54.87;101001.44;10256340;28;20255;-83
2022/05/21 07:23:57;;;;;;;15.20;8.30;;;;;;;13.16;54.61;100996.06;10251190;28;20223;-85
2022/05/21 07:28:59;;;;;;;11.97;6.30;;;;;;;12.64;55.85;100999.00;10211899;28;20203;-83
2022/05/21 07:34:01;;;;;;;9.77;5.90;;;;;;;12.64;54.94;101010.31;10249984;28;20195;-85
2022/05/21 07:39:04;;;;;;;11.00;5.57;;;;;;;12.91;54.75;101013.94;10242455;28;20227;-85
2022/05/21 07:44:06;;;;;;;12.80;6.27;;;;;;;13.31;53.80;101023.88;10225945;29;20635;-84
2022/05/21 07:49:09;;;;;;;9.00;6.10;;;;;;;13.12;53.84;101020.59;10230609;29;20207;-84
2022/05/21 07:54:11;;;;;;;9.70;6.00;;;;;;;12.99;54.22;101025.28;10253547;28;20231;-84
2022/05/21 07:59:14;;;;;;;12.30;6.30;;;;;;;12.89;53.58;101019.13;10215238;28;20256;-85
2022/05/21 08:04:17;;;;;;;13.20;6.60;;;;;;;11.91;56.65;101020.50;10200500;29;20258;-83
2022/05/21 08:09:21;;;;;;;15.13;6.97;;;;;;;12.56;54.86;101030.94;10222295;28;20259;-84
2022/05/21 08:14:23;;;;;;;9.80;6.07;;;;;;;12.98;54.29;101028.44;10207982;29;20230;-85
2022/05/21 08:19:26;;;;;;;10.03;6.53;;;;;;;12.94;54.06;101033.09;10216739;29;20203;-84
2022/05/21 08:30:06;;;;;;;15.47;7.10;;;;;;;12.11;56.80;101055.81;10191104;29;20705;-84
2022/05/21 08:35:09;;;;;;;13.17;7.30;;;;;;;12.66;55.30;101056.06;10196894;29;20512;-83
2022/05/21 08:40:14;;;;;;;11.03;6.73;;;;;;;12.54;54.85;101061.56;10221636;29;20227;-84
2022/05/21 08:45:25;;;;;;;14.43;7.03;;;;;;;12.72;55.15;101068.06;10211190;29;20619;-85
2022/05/21 08:50:32;;;;;;;20.10;8.00;;;;;;;13.09;54.11;101077.03;10253040;28;20199;-83
2022/05/21 08:55:41;;;;;;;13.20;7.37;;;;;;;13.09;53.66;101077.03;10254441;28;20259;-86
2022/05/21 09:00:46;;;;;;;13.70;7.40;;;;;;;12.69;55.82;101066.72;10206894;29;20216;-85
2022/05/21 09:06:12;;;;;;;14.43;7.40;;;;;;;12.97;54.28;101080.53;10196720;29;20251;-85
2022/05/21 09:11:26;;;;;;;11.23;7.87;;;;;;;13.19;53.96;101082.38;10217359;29;20291;-85
2022/05/21 09:16:54;;;;;;;12.40;7.47;;;;;;;12.55;56.08;101085.84;10202729;29;20196;-85
2022/05/21 09:22:04;;;;;;;10.27;7.90;;;;;;;12.75;55.23;101084.38;10205964;29;20243;-84
2022/05/21 09:27:30;;;;;;;17.60;8.30;;;;;;;13.62;54.53;101079.44;10216166;29;20263;-85
2022/05/21 09:32:34;;;;;;;16.77;9.80;;;;;;;13.26;55.60;101089.19;10223894;28;20279;-84
2022/05/21 09:37:36;;;;;;;14.17;9.33;;;;;;;13.56;54.66;101092.09;10211220;29;20278;-84
2022/05/21 09:48:09;;;;;;;14.03;7.73;;;;;;;14.32;51.69;101075.97;10248974;29;20600;-86
2022/05/21 09:53:33;;;;;;;13.73;7.50;;;;;;;14.89;51.17;101071.72;10228722;28;20286;-87
2022/05/21 09:58:41;;;;;;;16.13;6.87;;;;;;;14.59;49.95;101080.25;10260700;28;20200;-83
2022/05/21 10:03:53;;;;;;;13.50;7.13;;;;;;;14.82;50.17;101071.47;10238359;29;20294;-85
2022/05/21 10:14:30;;;;;;;10.80;7.50;;;;;;;13.70;52.17;101072.91;10254228;29;20183;-85
2022/05/21 10:19:34;;;;;;;12.93;6.03;;;;;;;15.11;47.84;101052.28;10250990;28;20199;-82
2022/05/21 10:24:48;;;;;;;13.73;6.40;;;;;;;15.21;48.42;101056.72;10251386;29;20215;-86
2022/05/21 10:29:59;;;;;;;10.10;4.60;;;;;;;15.87;45.82;101059.50;10252502;28;20595;-86
2022/05/21 10:35:16;;;;;;;12.40;4.73;;;;;;;16.07;45.08;101061.38;10253670;29;20191;-86
2022/05/21 10:40:23;;;;;;;10.27;5.68;;;;;;;15.90;46.54;101055.91;10270684;28;20199;-85
2022/05/21 10:45:32;;;;;;;13.90;6.97;;;;;;;15.55;46.79;101049.00;10255043;28;20306;-83
2022/05/21 10:50:50;;;;;;;10.85;4.72;;;;;;;16.15;46.30;101056.75;10270009;28;20207;-83
2022/05/21 10:56:12;;;;;;;11.20;5.22;;;;;;;15.63;44.99;101045.25;10233224;29;20294;-84
2022/05/21 11:01:29;;;;;;;11.80;4.72;;;;;;;16.23;44.32;101040.78;10252599;29;20227;-83
2022/05/21 11:06:53;;;;;;;10.53;4.80;;;;;;;14.83;46.97;101054.09;10249965;29;20265;-84
2022/05/21 11:12:14;;;;;;;17.43;5.13;;;;;;;14.71;47.50;101059.66;10249832;29;20242;-83
2022/05/21 11:17:52;;;;;;;12.53;6.10;;;;;;;15.62;45.38;101063.50;10234570;29;20262;-85
2022/05/21 11:22:58;;;;;;;15.33;5.83;;;;;;;15.12;47.42;101064.47;10265920;28;20692;-82
2022/05/21 11:28:28;;;;;;;8.37;4.67;;;;;;;15.35;46.45;101062.94;10249584;29;20218;-81
2022/05/21 11:38:54;;;;;;;10.60;5.57;;;;;;;15.72;45.69;101061.03;10246781;29;20206;-82
2022/05/21 11:49:39;;;;;;;120.80;13.70;;;;;;;16.12;45.05;101044.09;10248060;29;20667;-79
2022/05/21 11:54:44;;;;;;;17.10;5.83;;;;;;;17.01;43.06;101052.59;10249356;28;20669;-80
2022/05/21 11:59:51;;;;;;;15.60;4.70;;;;;;;15.91;45.29;101060.41;10250168;29;20203;-80
2022/05/21 12:04:59;;;;;;;16.13;4.93;;;;;;;15.49;45.01;101054.91;10233701;29;20250;-83
2022/05/21 13:24:30;;;;;;;10.80;5.03;;;;;;;13.20;49.18;101067.88;10572434;27;20338;-84
2022/05/21 13:29:35;;;;;;;9.40;3.90;;;;;;;13.70;48.30;101072.91;10541539;28;20248;-89
2022/05/21 13:34:38;;;;;;;9.23;3.88;;;;;;;13.32;50.30;101065.19;10526392;28;20468;-88
2022/05/21 13:39:40;;;;;;;10.37;5.60;;;;;;;13.90;47.84;101062.81;10550266;28;20241;-86
2022/05/21 13:44:44;;;;;;;7.95;4.25;;;;;;;14.33;47.10;101054.91;10547330;28;20198;-86
2022/05/21 13:49:53;;;;;;;8.50;4.22;;;;;;;15.38;45.82;101044.31;10529187;28;20186;-85
2022/05/21 13:54:56;;;;;;;9.15;4.00;;;;;;;14.93;44.89;101047.16;10592073;27;20289;-84
2022/05/21 14:00:03;;;;;;;7.88;4.13;;;;;;;14.92;44.70;101026.44;10550834;28;20686;-86
2022/05/21 14:05:22;;;;;;;9.52;4.63;;;;;;;14.46;47.91;101024.63;10573010;28;20198;-88
2022/05/21 14:10:34;;;;;;;9.02;4.10;;;;;;;14.54;45.77;101023.75;10570610;28;20178;-87
2022/05/21 14:15:44;;;;;;;8.25;4.03;;;;;;;14.22;46.65;101018.81;10570643;28;20194;-87
2022/05/21 14:21:01;;;;;;;10.73;5.00;;;;;;;14.61;45.32;101021.16;10550291;28;20283;-87
2022/05/21 14:26:16;;;;;;;7.07;4.00;;;;;;;14.63;46.41;101013.16;10552941;28;20193;-85
2022/05/21 14:31:39;;;;;;;7.97;4.07;;;;;;;14.71;44.64;100998.06;10542103;28;20256;-87
2022/05/21 14:36:44;;;;;;;12.32;4.90;;;;;;;14.72;44.71;100996.88;10495955;28;20264;-86
2022/05/21 14:41:48;;;;;;;11.73;5.17;;;;;;;15.02;44.32;100991.09;10525331;28;20242;-89
2022/05/21 14:57:36;;;;;;;9.20;4.75;;;;;;;14.96;44.98;100992.53;10514487;28;20256;-86
2022/05/21 15:02:39;;;;;;;11.18;5.30;;;;;;;15.52;43.83;100976.69;10518909;28;20223;-84
2022/05/21 15:07:46;;;;;;;9.60;6.32;;;;;;;15.39;42.87;100983.50;10523934;28;20209;-86
2022/05/21 15:12:50;;;;;;;8.02;5.45;;;;;;;15.61;43.38;100963.22;10539236;28;20178;-84
2022/05/21 15:17:52;;;;;;;13.68;5.30;;;;;;;15.40;44.52;100980.31;10522559;28;20190;-88
2022/05/21 15:22:56;;;;;;;9.25;6.28;;;;;;;15.45;43.64;100965.88;10535066;28;20222;-88
2022/05/21 15:27:58;;;;;;;10.10;5.50;;;;;;;15.41;42.78;100962.09;10518920;28;20207;-88
2022/05/21 15:33:00;;;;;;;12.32;6.80;;;;;;;14.72;44.70;100973.38;10535944;28;20198;-88
2022/05/21 15:38:04;;;;;;;11.20;4.85;;;;;;;15.37;42.66;100969.63;10546785;28;20226;-87
2022/05/21 15:43:15;;;;;;;10.80;5.47;;;;;;;15.40;44.32;100951.06;10541478;28;20210;-87
2022/05/21 15:48:19;;;;;;;11.60;5.43;;;;;;;14.83;43.59;100953.91;10540564;28;20202;-90
2022/05/21 15:53:22;;;;;;;10.25;5.85;;;;;;;15.52;43.94;100953.94;10549256;28;20199;-88
2022/05/21 15:58:24;;;;;;;6.68;4.35;;;;;;;15.04;43.72;100949.00;10546994;28;20651;-90
2022/05/21 16:03:27;;;;;;;11.38;4.97;;;;;;;15.25;44.46;100946.06;10540651;28;20211;-90
2022/05/21 16:08:31;;;;;;;6.97;5.80;;;;;;;15.20;43.33;100941.47;10523329;28;20346;-90
2022/05/21 16:13:35;;;;;;;15.03;10.00;;;;;;;15.10;44.58;100941.94;10514898;28;20202;-87
2022/05/21 16:18:37;;;;;;;9.52;6.57;;;;;;;15.08;43.99;100932.94;10518345;28;20553;-89
2022/05/21 16:23:40;;;;;;;16.50;7.50;;;;;;;15.16;44.47;100929.16;10526560;28;20219;-83
2022/05/21 16:28:42;;;;;;;8.65;6.00;;;;;;;14.74;43.16;100922.75;10537279;28;20214;-88
2022/05/21 16:33:45;;;;;;;36.63;27.55;;;;;;;15.69;43.48;100908.25;10511858;28;20602;-84
2022/05/21 16:38:48;;;;;;;17.75;11.60;;;;;;;15.11;43.73;100916.00;10507567;28;20203;-83
2022/05/21 16:43:50;;;;;;;11.38;6.78;;;;;;;15.15;44.57;100910.44;10516784;28;20268;-83
2022/05/21 16:48:52;;;;;;;11.07;5.18;;;;;;;15.58;42.47;100900.56;10534338;28;20277;-84
2022/05/21 16:53:54;;;;;;;10.87;6.13;;;;;;;15.00;43.40;100902.63;10517577;28;20210;-84
2022/05/21 16:58:57;;;;;;;15.13;9.20;;;;;;;14.55;44.09;100897.75;10522873;28;20199;-85
2022/05/21 17:03:59;;;;;;;19.83;9.73;;;;;;;14.76;45.19;100900.56;10533829;28;20274;-85
2022/05/21 17:09:02;;;;;;;10.38;6.78;;;;;;;14.90;43.68;100892.56;10531948;28;20194;-84
2022/05/21 17:14:04;;;;;;;27.77;16.48;;;;;;;14.36;45.20;100894.59;10526793;28;20598;-84
2022/05/21 17:19:07;;;;;;;11.32;8.27;;;;;;;15.01;44.15;100887.25;10524909;28;20193;-87
2022/05/21 17:24:11;;;;;;;11.68;6.03;;;;;;;15.10;44.87;100890.81;10507162;28;20210;-90
2022/05/21 17:34:40;;;;;;;12.90;8.77;;;;;;;15.08;44.77;100882.66;10495428;28;20247;-91
2022/05/21 17:39:42;;;;;;;9.80;5.00;;;;;;;14.62;45.39;100886.66;10569992;28;20228;-87
2022/05/21 17:44:45;;;;;;;10.68;5.45;;;;;;;14.37;45.89;100884.91;10532292;28;20202;-91
2022/05/21 17:49:48;;;;;;;9.35;3.70;;;;;;;14.85;44.55;100881.41;10526818;28;20596;-85
2022/05/21 17:54:51;;;;;;;11.52;5.45;;;;;;;14.72;45.21;100879.72;10524941;28;20271;-84
2022/05/21 17:59:53;;;;;;;11.07;5.95;;;;;;;14.79;44.41;100875.16;10501280;28;20260;-88
2022/05/21 18:04:58;;;;;;;9.45;3.80;;;;;;;14.55;45.20;100872.22;10521268;28;20206;-87
2022/05/21 18:10:03;;;;;;;10.43;5.07;;;;;;;14.32;46.21;100876.63;10523188;28;20202;-89
2022/05/21 18:15:10;;;;;;;12.07;6.28;;;;;;;14.16;45.92;100889.78;10520572;28;20509;-85
2022/05/21 18:20:16;;;;;;;8.97;3.90;;;;;;;14.62;45.27;100880.16;10544569;28;20499;-86
2022/05/21 18:25:20;;;;;;;11.23;6.10;;;;;;;14.23;45.96;100887.22;10529956;28;20678;-88
2022/05/21 18:30:25;;;;;;;10.20;6.57;;;;;;;14.55;45.32;100880.75;10545502;28;20191;-89
2022/05/21 18:35:27;;;;;;;9.97;4.00;;;;;;;14.20;46.14;100888.72;10549612;28;20205;-88
2022/05/21 18:40:29;;;;;;;12.27;5.00;;;;;;;13.69;47.04;100881.44;10513981;28;20229;-89
2022/05/21 18:45:37;;;;;;;9.18;3.95;;;;;;;14.28;46.06;100881.34;10535445;28;20220;-89
2022/05/21 18:50:54;;;;;;;7.90;3.42;;;;;;;14.55;46.71;100892.09;10514521;28;20777;-91
2022/05/21 18:55:57;;;;;;;5.60;2.45;;;;;;;14.40;47.67;100895.56;10513652;28;20634;-88
2022/05/21 19:00:59;;;;;;;6.13;2.47;;;;;;;14.25;49.13;100893.38;10536032;28;20272;-91
2022/05/21 19:06:01;;;;;;;7.93;3.13;;;;;;;14.23;49.45;100895.72;10542261;28;20190;-85
2022/05/21 19:11:08;;;;;;;6.82;2.58;;;;;;;14.17;48.99;100888.59;10524282;28;20194;-86
2022/05/21 19:16:22;;;;;;;11.43;4.43;;;;;;;14.20;49.99;100888.72;10523786;28;20212;-85
2022/05/21 19:21:25;;;;;;;7.43;3.20;;;;;;;13.90;50.27;100896.47;10555811;28;20235;-90
2022/05/21 19:26:27;;;;;;;11.13;5.38;;;;;;;14.15;49.81;100896.63;10486484;28;20637;-87
2022/05/21 19:31:30;;;;;;;7.33;3.20;;;;;;;13.99;49.94;100900.09;10493337;28;20191;-88
2022/05/21 19:36:34;;;;;;;9.05;2.15;;;;;;;13.74;49.84;100899.06;10505612;28;20183;-86
2022/05/21 19:41:36;;;;;;;4.43;1.90;;;;;;;13.83;49.83;100909.50;10539425;28;20214;-87
2022/05/21 19:46:38;;;;;;;5.03;2.03;;;;;;;13.71;50.27;100911.06;10521267;28;20191;-88
2022/05/21 19:51:43;;;;;;;8.50;2.47;;;;;;;13.82;50.70;100914.34;10513034;28;20256;-87
2022/05/21 19:56:47;;;;;;;4.63;2.20;;;;;;;13.51;50.62;100931.69;10505447;28;20552;-90
2022/05/21 20:01:50;;;;;;;9.03;2.47;;;;;;;13.35;52.98;100927.78;10523695;28;20679;-88
2022/05/21 20:06:53;;;;;;;4.72;2.20;;;;;;;13.19;53.45;100930.34;10505158;28;20240;-87
2022/05/21 20:11:56;;;;;;;5.93;2.40;;;;;;;13.29;52.36;100929.16;10495851;28;20271;-86
2022/05/21 20:16:58;;;;;;;8.47;2.20;;;;;;;12.90;54.23;100928.22;10507023;28;20217;-88
2022/05/21 20:22:00;;;;;;;11.80;3.42;;;;;;;12.99;55.57;100916.91;10530072;28;20686;-87
2022/05/21 20:27:03;;;;;;;9.90;3.33;;;;;;;12.59;56.63;100922.84;10517051;28;20248;-87
2022/05/21 20:32:07;;;;;;;9.20;2.78;;;;;;;12.82;55.87;100919.78;10535615;28;20190;-90
2022/05/21 20:37:09;;;;;;;11.68;2.90;;;;;;;12.46;57.47;100923.84;10534303;28;20537;-85
2022/05/21 20:42:11;;;;;;;6.30;3.30;;;;;;;12.41;57.70;100926.84;10517406;28;20249;-88
2022/05/21 20:47:15;;;;;;;7.30;3.07;;;;;;;12.27;59.31;100926.97;10515291;28;20198;-87
2022/05/21 20:52:18;;;;;;;5.80;2.70;;;;;;;12.04;60.01;100921.81;10518498;28;20232;-87
2022/05/21 20:57:21;;;;;;;5.03;3.17;;;;;;;12.27;59.10;100926.97;10517765;28;20728;-86
2022/05/21 21:02:24;;;;;;;7.03;3.97;;;;;;;12.39;59.17;100923.50;10518671;28;20221;-87
2022/05/21 21:07:26;;;;;;;6.47;3.30;;;;;;;11.94;59.53;100921.00;10518899;28;20187;-87
2022/05/21 21:12:28;;;;;;;7.20;3.47;;;;;;;11.83;59.00;100922.47;10536759;28;20174;-87
2022/05/21 21:17:30;;;;;;;7.63;4.00;;;;;;;11.64;60.28;100916.28;10516476;28;20243;-87
2022/05/21 21:22:33;;;;;;;5.13;3.50;;;;;;;11.69;60.91;100921.78;10532815;28;20218;-86
2022/05/21 21:27:35;;;;;;;7.80;4.00;;;;;;;11.97;58.55;100923.16;10516335;28;20590;-86
2022/05/21 21:32:38;;;;;;;9.23;4.30;;;;;;;11.74;61.27;100913.13;10493080;28;20260;-85
2022/05/21 21:37:40;;;;;;;6.90;4.27;;;;;;;11.68;60.34;100910.81;10493372;28;20191;-85
2022/05/21 21:42:43;;;;;;;8.83;4.70;;;;;;;11.40;60.74;100913.88;10519711;28;20267;-86
2022/05/21 21:47:45;;;;;;;6.85;4.38;;;;;;;11.63;60.50;100906.97;10526030;28;20228;-87
2022/05/21 21:52:48;;;;;;;9.60;4.00;;;;;;;11.44;61.60;100908.41;10509000;28;20214;-87
2022/05/21 22:01:22;;;;;;;8.87;4.13;;;;;;;11.15;62.30;100909.78;10507482;28;20533;-88
2022/05/21 22:03:12;;;;;;;7.27;3.53;;;;;;;11.25;62.47;100905.84;10541419;28;20332;-87
2022/05/21 22:08:16;;;;;;;8.43;4.07;;;;;;;11.45;61.03;100898.78;10541639;28;20239;-88
2022/05/21 22:13:18;;;;;;;7.97;3.40;;;;;;;11.28;61.54;100905.19;10509692;28;20655;-89
2022/05/21 22:18:20;;;;;;;6.30;2.93;;;;;;;11.44;60.23;100894.28;10529399;28;20195;-87
2022/05/21 22:23:22;;;;;;;6.17;3.50;;;;;;;11.30;61.06;100899.22;10529958;28;20223;-86
2022/05/21 22:28:25;;;;;;;6.53;3.70;;;;;;;11.22;59.65;100898.84;10547642;28;20659;-87
2022/05/21 22:33:27;;;;;;;8.63;3.70;;;;;;;11.20;61.34;100881.44;10528162;28;20244;-87
2022/05/21 22:38:42;;;;;;;6.83;3.60;;;;;;;10.89;61.93;100875.00;10519614;28;20198;-89
2022/05/21 22:43:45;;;;;;;6.80;3.27;;;;;;;11.00;61.56;100881.19;10536149;28;20218;-88
2022/05/21 22:48:47;;;;;;;9.70;3.83;;;;;;;10.85;61.52;100871.16;10522558;28;20194;-89
2022/05/21 22:53:59;;;;;;;8.60;4.13;;;;;;;10.88;62.61;100874.16;10548606;28;20198;-88
2022/05/21 22:59:01;;;;;;;9.57;4.33;;;;;;;10.79;62.81;100881.75;10532161;28;20187;-89
2022/05/21 23:04:03;;;;;;;6.20;3.90;;;;;;;10.84;61.99;100877.94;10530340;28;20272;-87
2022/05/21 23:09:05;;;;;;;7.67;3.80;;;;;;;10.70;63.15;100880.03;10529696;28;20191;-88
2022/05/21 23:19:31;;;;;;;6.23;3.53;;;;;;;10.80;62.99;100888.22;10547021;28;20219;-87
2022/05/21 23:24:34;;;;;;;6.07;3.90;;;;;;;10.77;63.03;100886.06;10512765;28;20692;-87
2022/05/21 23:29:36;;;;;;;11.07;3.83;;;;;;;10.57;63.92;100882.56;10512607;28;20194;-88
2022/05/21 23:34:38;;;;;;;7.20;3.43;;;;;;;10.65;63.35;100880.19;10512234;28;20247;-87
2022/05/21 23:39:41;;;;;;;8.37;3.53;;;;;;;10.71;62.91;100870.41;10512080;28;20198;-88
2022/05/21 23:44:43;;;;;;;8.67;4.00;;;;;;;10.44;64.22;100880.66;10495762;28;20214;-87
2022/05/21 23:49:49;;;;;;;9.10;3.67;;;;;;;10.59;62.91;100875.81;10495422;28;20195;-88
2022/05/21 23:54:53;;;;;;;7.50;3.47;;;;;;;10.28;63.76;100876.59;10495691;28;20207;-88
2022/05/21 23:59:55;;;;;;;8.90;3.87;;;;;;;10.51;62.25;100868.97;10528616;28;20186;-88
